sensor_id;sensor_type;location;lat;lon;timestamp;temperature;humidity
65582;DHT22;52231;40.090;18.348;2023-05-01T00:01:41;15.10;83.10
65582;DHT22;52231;40.090;18.348;2023-05-01T00:04:09;15.10;83.10
65582;DHT22;52231;40.090;18.348;2023-05-01T00:06:37;15.10;83.10
65582;DHT22;52231;40.090;18.348;2023-05-01T00:09:05;15.10;83.20
65582;DHT22;52231;40.090;18.348;2023-05-01T00:11:34;15.00;83.50
65582;DHT22;52231;40.090;18.348;2023-05-01T00:14:04;15.00;83.70
65582;DHT22;52231;40.090;18.348;2023-05-01T00:16:32;14.90;84.00
65582;DHT22;52231;40.090;18.348;2023-05-01T00:19:02;14.90;84.30
65582;DHT22;52231;40.090;18.348;2023-05-01T00:21:31;14.80;84.50
65582;DHT22;52231;40.090;18.348;2023-05-01T00:23:59;14.80;84.70
65582;DHT22;52231;40.090;18.348;2023-05-01T00:26:27;14.80;85.10
65582;DHT22;52231;40.090;18.348;2023-05-01T00:28:58;14.70;85.20
65582;DHT22;52231;40.090;18.348;2023-05-01T00:31:26;14.70;85.50
65582;DHT22;52231;40.090;18.348;2023-05-01T00:33:54;14.60;85.60
65582;DHT22;52231;40.090;18.348;2023-05-01T00:36:24;14.50;85.80
65582;DHT22;52231;40.090;18.348;2023-05-01T00:38:52;14.50;85.90
65582;DHT22;52231;40.090;18.348;2023-05-01T00:41:21;14.50;86.10
65582;DHT22;52231;40.090;18.348;2023-05-01T00:43:49;14.40;86.20
65582;DHT22;52231;40.090;18.348;2023-05-01T00:46:17;14.30;86.30
65582;DHT22;52231;40.090;18.348;2023-05-01T00:48:46;14.30;86.40
65582;DHT22;52231;40.090;18.348;2023-05-01T00:51:14;14.30;86.60
65582;DHT22;52231;40.090;18.348;2023-05-01T00:53:42;14.30;86.70
65582;DHT22;52231;40.090;18.348;2023-05-01T00:56:11;14.30;86.80
65582;DHT22;52231;40.090;18.348;2023-05-01T00:58:39;14.20;87.00
65582;DHT22;52231;40.090;18.348;2023-05-01T01:01:08;14.20;87.10
65582;DHT22;52231;40.090;18.348;2023-05-01T01:03:37;14.20;87.20
65582;DHT22;52231;40.090;18.348;2023-05-01T01:06:27;14.20;87.30
65582;DHT22;52231;40.090;18.348;2023-05-01T01:14:25;14.20;87.50
65582;DHT22;52231;40.090;18.348;2023-05-01T01:17:05;14.10;87.50
65582;DHT22;52231;40.090;18.348;2023-05-01T01:22:25;14.10;87.60
65582;DHT22;52231;40.090;18.348;2023-05-01T01:25:12;14.10;87.70
65582;DHT22;52231;40.090;18.348;2023-05-01T01:36:05;14.10;87.90
65582;DHT22;52231;40.090;18.348;2023-05-01T01:38:41;14.10;88.00
65582;DHT22;52231;40.090;18.348;2023-05-01T01:41:21;14.00;88.00
65582;DHT22;52231;40.090;18.348;2023-05-01T01:44:15;14.00;88.10
65582;DHT22;52231;40.090;18.348;2023-05-01T01:46:48;14.00;88.20
65582;DHT22;52231;40.090;18.348;2023-05-01T01:49:20;14.00;88.30
65582;DHT22;52231;40.090;18.348;2023-05-01T01:51:51;14.00;88.30
65582;DHT22;52231;40.090;18.348;2023-05-01T01:54:36;14.00;88.30
65582;DHT22;52231;40.090;18.348;2023-05-01T01:57:07;14.00;88.40
65582;DHT22;52231;40.090;18.348;2023-05-01T01:59:37;14.00;88.40
65582;DHT22;52231;40.090;18.348;2023-05-01T02:02:08;14.00;88.40
65582;DHT22;52231;40.090;18.348;2023-05-01T02:04:38;14.00;88.50
65582;DHT22;52231;40.090;18.348;2023-05-01T02:07:07;14.10;88.60
65582;DHT22;52231;40.090;18.348;2023-05-01T02:09:36;14.10;88.60
65582;DHT22;52231;40.090;18.348;2023-05-01T02:12:07;14.10;88.60
65582;DHT22;52231;40.090;18.348;2023-05-01T02:14:36;14.10;88.60
65582;DHT22;52231;40.090;18.348;2023-05-01T02:17:05;14.10;88.60
65582;DHT22;52231;40.090;18.348;2023-05-01T02:19:36;14.10;88.70
65582;DHT22;52231;40.090;18.348;2023-05-01T02:22:08;14.10;88.60
65582;DHT22;52231;40.090;18.348;2023-05-01T02:24:38;14.10;88.60
65582;DHT22;52231;40.090;18.348;2023-05-01T02:27:11;14.20;88.70
65582;DHT22;52231;40.090;18.348;2023-05-01T02:29:40;14.10;88.70
65582;DHT22;52231;40.090;18.348;2023-05-01T02:32:09;14.10;88.70
65582;DHT22;52231;40.090;18.348;2023-05-01T02:34:37;14.20;88.80
65582;DHT22;52231;40.090;18.348;2023-05-01T02:37:06;14.20;88.80
65582;DHT22;52231;40.090;18.348;2023-05-01T02:39:35;14.20;88.90
65582;DHT22;52231;40.090;18.348;2023-05-01T02:42:05;14.20;88.90
65582;DHT22;52231;40.090;18.348;2023-05-01T02:44:39;14.20;88.90
65582;DHT22;52231;40.090;18.348;2023-05-01T02:47:11;14.20;88.90
65582;DHT22;52231;40.090;18.348;2023-05-01T02:49:43;14.20;88.90
65582;DHT22;52231;40.090;18.348;2023-05-01T02:52:11;14.20;88.90
65582;DHT22;52231;40.090;18.348;2023-05-01T02:54:41;14.30;88.90
65582;DHT22;52231;40.090;18.348;2023-05-01T02:57:11;14.20;88.90
65582;DHT22;52231;40.090;18.348;2023-05-01T02:59:40;14.20;88.90
65582;DHT22;52231;40.090;18.348;2023-05-01T03:02:08;14.30;88.90
65582;DHT22;52231;40.090;18.348;2023-05-01T03:04:36;14.30;88.90
65582;DHT22;52231;40.090;18.348;2023-05-01T03:07:04;14.30;88.90
65582;DHT22;52231;40.090;18.348;2023-05-01T03:09:32;14.30;89.00
65582;DHT22;52231;40.090;18.348;2023-05-01T03:12:01;14.30;89.00
65582;DHT22;52231;40.090;18.348;2023-05-01T03:14:30;14.30;89.00
65582;DHT22;52231;40.090;18.348;2023-05-01T03:16:59;14.30;89.00
65582;DHT22;52231;40.090;18.348;2023-05-01T03:19:28;14.30;89.10
65582;DHT22;52231;40.090;18.348;2023-05-01T03:21:56;14.30;89.10
65582;DHT22;52231;40.090;18.348;2023-05-01T03:24:24;14.30;89.10
65582;DHT22;52231;40.090;18.348;2023-05-01T03:26:52;14.40;89.10
65582;DHT22;52231;40.090;18.348;2023-05-01T03:29:20;14.30;89.10
65582;DHT22;52231;40.090;18.348;2023-05-01T03:31:48;14.30;89.10
65582;DHT22;52231;40.090;18.348;2023-05-01T03:34:17;14.40;89.20
65582;DHT22;52231;40.090;18.348;2023-05-01T03:36:45;14.40;89.30
65582;DHT22;52231;40.090;18.348;2023-05-01T03:39:13;14.50;89.40
65582;DHT22;52231;40.090;18.348;2023-05-01T03:42:01;14.50;89.40
65582;DHT22;52231;40.090;18.348;2023-05-01T03:44:35;14.60;89.70
65582;DHT22;52231;40.090;18.348;2023-05-01T03:47:03;14.60;89.90
65582;DHT22;52231;40.090;18.348;2023-05-01T03:49:36;14.60;89.90
65582;DHT22;52231;40.090;18.348;2023-05-01T03:52:05;14.50;89.90
65582;DHT22;52231;40.090;18.348;2023-05-01T03:54:33;14.40;90.00
65582;DHT22;52231;40.090;18.348;2023-05-01T03:57:15;14.40;90.00
65582;DHT22;52231;40.090;18.348;2023-05-01T03:59:43;14.30;90.10
65582;DHT22;52231;40.090;18.348;2023-05-01T04:02:12;14.30;90.20
65582;DHT22;52231;40.090;18.348;2023-05-01T04:04:40;14.30;90.20
65582;DHT22;52231;40.090;18.348;2023-05-01T04:07:08;14.30;90.30
65582;DHT22;52231;40.090;18.348;2023-05-01T04:09:36;14.30;90.30
65582;DHT22;52231;40.090;18.348;2023-05-01T04:12:05;14.30;90.40
65582;DHT22;52231;40.090;18.348;2023-05-01T04:14:34;14.30;90.40
65582;DHT22;52231;40.090;18.348;2023-05-01T04:17:03;14.30;90.50
65582;DHT22;52231;40.090;18.348;2023-05-01T04:19:35;14.30;90.50
65582;DHT22;52231;40.090;18.348;2023-05-01T04:22:04;14.30;90.60
65582;DHT22;52231;40.090;18.348;2023-05-01T04:24:34;14.30;90.60
65582;DHT22;52231;40.090;18.348;2023-05-01T04:27:03;14.30;90.60
65582;DHT22;52231;40.090;18.348;2023-05-01T04:29:32;14.30;90.50
65582;DHT22;52231;40.090;18.348;2023-05-01T04:32:01;14.30;90.40
65582;DHT22;52231;40.090;18.348;2023-05-01T04:34:29;14.20;90.40
65582;DHT22;52231;40.090;18.348;2023-05-01T04:36:57;14.10;90.20
65582;DHT22;52231;40.090;18.348;2023-05-01T04:39:25;14.00;90.00
65582;DHT22;52231;40.090;18.348;2023-05-01T04:41:56;13.90;89.90
65582;DHT22;52231;40.090;18.348;2023-05-01T04:44:24;13.90;89.80
65582;DHT22;52231;40.090;18.348;2023-05-01T04:46:53;13.80;89.70
65582;DHT22;52231;40.090;18.348;2023-05-01T04:49:21;13.80;89.70
65582;DHT22;52231;40.090;18.348;2023-05-01T04:51:49;13.80;89.70
65582;DHT22;52231;40.090;18.348;2023-05-01T04:54:19;13.90;89.70
65582;DHT22;52231;40.090;18.348;2023-05-01T04:56:47;13.90;89.70
65582;DHT22;52231;40.090;18.348;2023-05-01T04:59:15;13.80;89.80
65582;DHT22;52231;40.090;18.348;2023-05-01T05:01:44;13.90;89.80
65582;DHT22;52231;40.090;18.348;2023-05-01T05:04:13;13.90;89.90
65582;DHT22;52231;40.090;18.348;2023-05-01T05:06:41;14.00;89.90
65582;DHT22;52231;40.090;18.348;2023-05-01T05:09:15;14.00;90.00
65582;DHT22;52231;40.090;18.348;2023-05-01T05:11:45;14.00;90.00
65582;DHT22;52231;40.090;18.348;2023-05-01T05:14:20;14.10;90.00
65582;DHT22;52231;40.090;18.348;2023-05-01T05:16:50;14.20;90.20
65582;DHT22;52231;40.090;18.348;2023-05-01T05:19:19;14.30;90.10
65582;DHT22;52231;40.090;18.348;2023-05-01T05:21:47;14.30;90.20
65582;DHT22;52231;40.090;18.348;2023-05-01T05:24:16;14.40;90.20
65582;DHT22;52231;40.090;18.348;2023-05-01T05:26:44;14.50;90.10
65582;DHT22;52231;40.090;18.348;2023-05-01T05:29:12;14.50;90.00
65582;DHT22;52231;40.090;18.348;2023-05-01T05:31:41;14.60;89.90
65582;DHT22;52231;40.090;18.348;2023-05-01T05:34:09;14.70;89.80
65582;DHT22;52231;40.090;18.348;2023-05-01T05:36:38;14.70;89.70
65582;DHT22;52231;40.090;18.348;2023-05-01T05:39:07;14.80;89.60
65582;DHT22;52231;40.090;18.348;2023-05-01T05:41:35;14.80;89.50
65582;DHT22;52231;40.090;18.348;2023-05-01T05:44:03;14.90;89.20
65582;DHT22;52231;40.090;18.348;2023-05-01T05:46:31;14.90;88.90
65582;DHT22;52231;40.090;18.348;2023-05-01T05:49:00;15.00;88.70
65582;DHT22;52231;40.090;18.348;2023-05-01T05:51:30;15.10;88.30
65582;DHT22;52231;40.090;18.348;2023-05-01T05:54:00;15.20;87.80
65582;DHT22;52231;40.090;18.348;2023-05-01T05:56:30;15.30;87.30
65582;DHT22;52231;40.090;18.348;2023-05-01T05:58:59;15.30;86.80
65582;DHT22;52231;40.090;18.348;2023-05-01T06:01:30;15.50;86.60
65582;DHT22;52231;40.090;18.348;2023-05-01T06:03:59;15.70;86.10
65582;DHT22;52231;40.090;18.348;2023-05-01T06:06:29;15.70;85.70
65582;DHT22;52231;40.090;18.348;2023-05-01T06:08:59;15.90;85.60
65582;DHT22;52231;40.090;18.348;2023-05-01T06:11:28;15.90;85.40
65582;DHT22;52231;40.090;18.348;2023-05-01T06:13:57;16.10;85.50
65582;DHT22;52231;40.090;18.348;2023-05-01T06:16:25;16.10;85.10
65582;DHT22;52231;40.090;18.348;2023-05-01T06:18:54;16.20;84.90
65582;DHT22;52231;40.090;18.348;2023-05-01T06:21:22;16.30;84.90
65582;DHT22;52231;40.090;18.348;2023-05-01T06:23:51;16.30;84.40
65582;DHT22;52231;40.090;18.348;2023-05-01T06:26:26;16.30;84.30
65582;DHT22;52231;40.090;18.348;2023-05-01T06:28:55;16.30;84.70
65582;DHT22;52231;40.090;18.348;2023-05-01T06:31:24;16.40;84.80
65582;DHT22;52231;40.090;18.348;2023-05-01T06:33:55;16.40;84.10
65582;DHT22;52231;40.090;18.348;2023-05-01T06:36:43;16.40;83.30
65582;DHT22;52231;40.090;18.348;2023-05-01T06:39:11;16.50;83.70
65582;DHT22;52231;40.090;18.348;2023-05-01T06:41:39;16.70;82.90
65582;DHT22;52231;40.090;18.348;2023-05-01T06:44:09;16.70;82.30
65582;DHT22;52231;40.090;18.348;2023-05-01T06:46:38;16.60;81.90
65582;DHT22;52231;40.090;18.348;2023-05-01T06:49:06;16.70;81.80
65582;DHT22;52231;40.090;18.348;2023-05-01T06:51:34;16.80;81.90
65582;DHT22;52231;40.090;18.348;2023-05-01T06:54:03;16.80;81.80
65582;DHT22;52231;40.090;18.348;2023-05-01T06:56:32;17.00;81.30
65582;DHT22;52231;40.090;18.348;2023-05-01T06:59:01;16.90;81.10
65582;DHT22;52231;40.090;18.348;2023-05-01T07:01:30;16.90;81.10
65582;DHT22;52231;40.090;18.348;2023-05-01T07:03:59;17.00;81.30
65582;DHT22;52231;40.090;18.348;2023-05-01T07:06:28;17.20;80.70
65582;DHT22;52231;40.090;18.348;2023-05-01T07:08:56;17.30;80.40
65582;DHT22;52231;40.090;18.348;2023-05-01T07:11:24;17.20;79.80
65582;DHT22;52231;40.090;18.348;2023-05-01T07:13:53;17.20;80.40
65582;DHT22;52231;40.090;18.348;2023-05-01T07:16:22;17.30;80.80
65582;DHT22;52231;40.090;18.348;2023-05-01T07:18:50;17.40;81.10
65582;DHT22;52231;40.090;18.348;2023-05-01T07:21:18;17.60;80.80
65582;DHT22;52231;40.090;18.348;2023-05-01T07:23:46;17.70;80.60
65582;DHT22;52231;40.090;18.348;2023-05-01T07:26:15;17.80;80.50
65582;DHT22;52231;40.090;18.348;2023-05-01T07:28:43;17.80;80.60
65582;DHT22;52231;40.090;18.348;2023-05-01T07:31:11;17.80;80.40
65582;DHT22;52231;40.090;18.348;2023-05-01T07:33:39;17.90;80.20
65582;DHT22;52231;40.090;18.348;2023-05-01T07:36:11;18.10;79.80
65582;DHT22;52231;40.090;18.348;2023-05-01T07:38:39;18.20;80.10
65582;DHT22;52231;40.090;18.348;2023-05-01T07:41:08;18.30;78.80
65582;DHT22;52231;40.090;18.348;2023-05-01T07:43:36;18.30;78.20
65582;DHT22;52231;40.090;18.348;2023-05-01T07:46:04;18.30;78.40
65582;DHT22;52231;40.090;18.348;2023-05-01T07:48:32;18.30;77.10
65582;DHT22;52231;40.090;18.348;2023-05-01T07:51:03;18.00;77.20
65582;DHT22;52231;40.090;18.348;2023-05-01T07:53:31;17.90;77.40
65582;DHT22;52231;40.090;18.348;2023-05-01T07:56:09;18.00;78.20
65582;DHT22;52231;40.090;18.348;2023-05-01T07:58:37;17.80;77.80
65582;DHT22;52231;40.090;18.348;2023-05-01T08:01:08;17.60;78.50
65582;DHT22;52231;40.090;18.348;2023-05-01T08:03:36;17.50;79.30
65582;DHT22;52231;40.090;18.348;2023-05-01T08:06:05;17.50;79.80
65582;DHT22;52231;40.090;18.348;2023-05-01T08:08:33;17.50;79.50
65582;DHT22;52231;40.090;18.348;2023-05-01T08:11:02;17.50;79.90
65582;DHT22;52231;40.090;18.348;2023-05-01T08:13:30;17.60;80.00
65582;DHT22;52231;40.090;18.348;2023-05-01T08:16:01;17.70;79.40
65582;DHT22;52231;40.090;18.348;2023-05-01T08:18:30;17.80;78.70
65582;DHT22;52231;40.090;18.348;2023-05-01T08:20:58;17.80;78.60
65582;DHT22;52231;40.090;18.348;2023-05-01T08:23:26;17.90;78.40
65582;DHT22;52231;40.090;18.348;2023-05-01T08:25:55;18.00;78.40
65582;DHT22;52231;40.090;18.348;2023-05-01T08:28:26;18.00;77.90
65582;DHT22;52231;40.090;18.348;2023-05-01T08:30:54;18.10;78.20
65582;DHT22;52231;40.090;18.348;2023-05-01T08:33:22;18.20;77.80
65582;DHT22;52231;40.090;18.348;2023-05-01T08:35:51;18.10;77.40
65582;DHT22;52231;40.090;18.348;2023-05-01T08:38:20;17.80;78.00
65582;DHT22;52231;40.090;18.348;2023-05-01T08:40:52;17.80;78.40
65582;DHT22;52231;40.090;18.348;2023-05-01T08:43:21;17.90;78.90
65582;DHT22;52231;40.090;18.348;2023-05-01T08:45:53;18.00;78.60
65582;DHT22;52231;40.090;18.348;2023-05-01T08:48:24;18.20;77.70
65582;DHT22;52231;40.090;18.348;2023-05-01T08:50:55;18.30;77.30
65582;DHT22;52231;40.090;18.348;2023-05-01T08:53:31;18.40;76.40
65582;DHT22;52231;40.090;18.348;2023-05-01T08:56:00;18.30;76.90
65582;DHT22;52231;40.090;18.348;2023-05-01T08:58:34;18.20;77.60
65582;DHT22;52231;40.090;18.348;2023-05-01T09:01:04;18.30;78.10
65582;DHT22;52231;40.090;18.348;2023-05-01T09:03:34;18.10;78.80
65582;DHT22;52231;40.090;18.348;2023-05-01T09:06:05;18.00;78.90
65582;DHT22;52231;40.090;18.348;2023-05-01T09:08:36;18.10;78.20
65582;DHT22;52231;40.090;18.348;2023-05-01T09:11:04;18.30;78.50
65582;DHT22;52231;40.090;18.348;2023-05-01T09:13:33;18.30;77.40
65582;DHT22;52231;40.090;18.348;2023-05-01T09:16:02;18.10;78.00
65582;DHT22;52231;40.090;18.348;2023-05-01T09:18:34;18.20;78.80
65582;DHT22;52231;40.090;18.348;2023-05-01T09:21:03;18.30;77.70
65582;DHT22;52231;40.090;18.348;2023-05-01T09:23:31;18.20;78.00
65582;DHT22;52231;40.090;18.348;2023-05-01T09:26:03;18.20;77.80
65582;DHT22;52231;40.090;18.348;2023-05-01T09:28:42;18.10;77.90
65582;DHT22;52231;40.090;18.348;2023-05-01T09:31:22;18.00;77.80
65582;DHT22;52231;40.090;18.348;2023-05-01T09:33:56;17.80;78.00
65582;DHT22;52231;40.090;18.348;2023-05-01T09:36:29;17.60;78.40
65582;DHT22;52231;40.090;18.348;2023-05-01T09:39:01;17.60;78.00
65582;DHT22;52231;40.090;18.348;2023-05-01T09:41:32;17.50;77.90
65582;DHT22;52231;40.090;18.348;2023-05-01T09:44:00;17.70;78.90
65582;DHT22;52231;40.090;18.348;2023-05-01T09:46:40;17.80;78.20
65582;DHT22;52231;40.090;18.348;2023-05-01T09:49:09;18.00;77.80
65582;DHT22;52231;40.090;18.348;2023-05-01T09:51:38;18.10;77.20
65582;DHT22;52231;40.090;18.348;2023-05-01T09:54:17;18.30;76.80
65582;DHT22;52231;40.090;18.348;2023-05-01T09:56:47;18.40;76.00
65582;DHT22;52231;40.090;18.348;2023-05-01T09:59:18;18.40;75.70
65582;DHT22;52231;40.090;18.348;2023-05-01T10:01:47;18.40;75.70
65582;DHT22;52231;40.090;18.348;2023-05-01T10:04:31;18.30;76.30
65582;DHT22;52231;40.090;18.348;2023-05-01T10:07:13;18.30;76.00
65582;DHT22;52231;40.090;18.348;2023-05-01T10:09:41;18.30;76.60
65582;DHT22;52231;40.090;18.348;2023-05-01T10:12:10;18.30;76.70
65582;DHT22;52231;40.090;18.348;2023-05-01T10:14:53;18.30;77.50
65582;DHT22;52231;40.090;18.348;2023-05-01T10:17:21;18.30;77.70
65582;DHT22;52231;40.090;18.348;2023-05-01T10:19:50;18.20;77.70
65582;DHT22;52231;40.090;18.348;2023-05-01T10:22:18;18.00;78.70
65582;DHT22;52231;40.090;18.348;2023-05-01T10:24:46;18.00;78.30
65582;DHT22;52231;40.090;18.348;2023-05-01T10:27:16;18.00;78.90
65582;DHT22;52231;40.090;18.348;2023-05-01T10:29:45;18.00;79.50
65582;DHT22;52231;40.090;18.348;2023-05-01T10:32:15;18.20;80.00
65582;DHT22;52231;40.090;18.348;2023-05-01T10:34:51;18.40;79.50
65582;DHT22;52231;40.090;18.348;2023-05-01T10:37:25;18.80;78.40
65582;DHT22;52231;40.090;18.348;2023-05-01T10:39:56;19.00;77.10
65582;DHT22;52231;40.090;18.348;2023-05-01T10:42:26;19.20;76.80
65582;DHT22;52231;40.090;18.348;2023-05-01T10:45:26;19.40;76.30
65582;DHT22;52231;40.090;18.348;2023-05-01T10:47:56;19.30;75.40
65582;DHT22;52231;40.090;18.348;2023-05-01T10:50:24;19.50;75.10
65582;DHT22;52231;40.090;18.348;2023-05-01T10:55:44;19.40;74.00
65582;DHT22;52231;40.090;18.348;2023-05-01T10:58:54;19.20;74.00
65582;DHT22;52231;40.090;18.348;2023-05-01T11:01:33;19.00;74.40
65582;DHT22;52231;40.090;18.348;2023-05-01T11:06:31;19.00;75.60
65582;DHT22;52231;40.090;18.348;2023-05-01T11:09:00;19.10;74.50
65582;DHT22;52231;40.090;18.348;2023-05-01T11:14:01;19.10;74.10
65582;DHT22;52231;40.090;18.348;2023-05-01T11:19:42;19.50;72.90
65582;DHT22;52231;40.090;18.348;2023-05-01T11:22:00;19.80;71.50
65582;DHT22;52231;40.090;18.348;2023-05-01T11:24:32;19.80;71.10
65582;DHT22;52231;40.090;18.348;2023-05-01T11:27:01;19.90;70.90
65582;DHT22;52231;40.090;18.348;2023-05-01T11:29:31;19.60;71.00
65582;DHT22;52231;40.090;18.348;2023-05-01T11:32:00;19.20;72.50
65582;DHT22;52231;40.090;18.348;2023-05-01T11:34:34;19.20;73.90
65582;DHT22;52231;40.090;18.348;2023-05-01T11:37:04;19.30;73.90
65582;DHT22;52231;40.090;18.348;2023-05-01T11:39:32;19.30;73.00
65582;DHT22;52231;40.090;18.348;2023-05-01T11:42:12;19.40;73.90
65582;DHT22;52231;40.090;18.348;2023-05-01T11:44:40;19.40;74.30
65582;DHT22;52231;40.090;18.348;2023-05-01T11:47:10;19.30;74.20
65582;DHT22;52231;40.090;18.348;2023-05-01T11:49:40;19.10;75.00
65582;DHT22;52231;40.090;18.348;2023-05-01T11:52:08;18.80;76.40
65582;DHT22;52231;40.090;18.348;2023-05-01T11:54:46;18.40;78.00
65582;DHT22;52231;40.090;18.348;2023-05-01T11:57:15;18.10;79.00
65582;DHT22;52231;40.090;18.348;2023-05-01T11:59:45;18.00;79.80
65582;DHT22;52231;40.090;18.348;2023-05-01T12:02:18;18.30;79.90
65582;DHT22;52231;40.090;18.348;2023-05-01T12:04:47;18.50;79.40
65582;DHT22;52231;40.090;18.348;2023-05-01T12:07:22;18.70;78.10
65582;DHT22;52231;40.090;18.348;2023-05-01T12:09:51;18.80;77.90
65582;DHT22;52231;40.090;18.348;2023-05-01T12:12:19;18.90;77.40
65582;DHT22;52231;40.090;18.348;2023-05-01T12:14:47;19.00;77.70
65582;DHT22;52231;40.090;18.348;2023-05-01T12:17:15;19.10;76.00
65582;DHT22;52231;40.090;18.348;2023-05-01T12:19:47;19.10;76.00
65582;DHT22;52231;40.090;18.348;2023-05-01T12:22:17;18.90;76.20
65582;DHT22;52231;40.090;18.348;2023-05-01T12:24:50;18.60;76.70
65582;DHT22;52231;40.090;18.348;2023-05-01T12:27:22;18.30;77.70
65582;DHT22;52231;40.090;18.348;2023-05-01T12:29:50;18.10;78.50
65582;DHT22;52231;40.090;18.348;2023-05-01T12:32:18;17.90;79.80
65582;DHT22;52231;40.090;18.348;2023-05-01T12:34:59;18.00;79.90
65582;DHT22;52231;40.090;18.348;2023-05-01T12:37:31;18.20;79.50
65582;DHT22;52231;40.090;18.348;2023-05-01T12:39:59;18.40;78.60
65582;DHT22;52231;40.090;18.348;2023-05-01T12:42:34;18.80;77.20
65582;DHT22;52231;40.090;18.348;2023-05-01T12:45:03;19.00;75.90
65582;DHT22;52231;40.090;18.348;2023-05-01T12:47:35;19.10;75.30
65582;DHT22;52231;40.090;18.348;2023-05-01T12:50:05;19.00;75.10
65582;DHT22;52231;40.090;18.348;2023-05-01T12:52:34;19.20;75.40
65582;DHT22;52231;40.090;18.348;2023-05-01T12:55:03;19.30;73.90
65582;DHT22;52231;40.090;18.348;2023-05-01T12:57:32;19.20;73.40
65582;DHT22;52231;40.090;18.348;2023-05-01T13:00:04;19.30;74.10
65582;DHT22;52231;40.090;18.348;2023-05-01T13:02:38;19.20;74.40
65582;DHT22;52231;40.090;18.348;2023-05-01T13:05:09;19.20;74.40
65582;DHT22;52231;40.090;18.348;2023-05-01T13:07:38;19.30;74.30
65582;DHT22;52231;40.090;18.348;2023-05-01T13:10:09;19.30;74.40
65582;DHT22;52231;40.090;18.348;2023-05-01T13:12:43;19.50;73.00
65582;DHT22;52231;40.090;18.348;2023-05-01T13:15:22;19.60;71.90
65582;DHT22;52231;40.090;18.348;2023-05-01T13:17:50;19.60;71.50
65582;DHT22;52231;40.090;18.348;2023-05-01T13:20:25;19.60;71.30
65582;DHT22;52231;40.090;18.348;2023-05-01T13:22:55;19.50;71.60
65582;DHT22;52231;40.090;18.348;2023-05-01T13:25:23;19.00;72.60
65582;DHT22;52231;40.090;18.348;2023-05-01T13:27:52;18.90;73.20
65582;DHT22;52231;40.090;18.348;2023-05-01T13:30:30;19.00;73.50
65582;DHT22;52231;40.090;18.348;2023-05-01T13:32:59;19.10;72.80
65582;DHT22;52231;40.090;18.348;2023-05-01T13:35:29;19.10;71.80
65582;DHT22;52231;40.090;18.348;2023-05-01T13:37:57;19.10;73.20
65582;DHT22;52231;40.090;18.348;2023-05-01T13:40:26;19.10;72.10
65582;DHT22;52231;40.090;18.348;2023-05-01T13:42:54;19.30;72.80
65582;DHT22;52231;40.090;18.348;2023-05-01T13:45:22;19.50;71.20
65582;DHT22;52231;40.090;18.348;2023-05-01T13:47:52;19.40;71.30
65582;DHT22;52231;40.090;18.348;2023-05-01T13:50:22;19.60;70.90
65582;DHT22;52231;40.090;18.348;2023-05-01T13:52:50;19.70;70.80
65582;DHT22;52231;40.090;18.348;2023-05-01T13:55:20;19.60;71.10
65582;DHT22;52231;40.090;18.348;2023-05-01T13:57:50;19.50;71.90
65582;DHT22;52231;40.090;18.348;2023-05-01T14:00:19;19.40;72.60
65582;DHT22;52231;40.090;18.348;2023-05-01T14:02:48;19.30;72.90
65582;DHT22;52231;40.090;18.348;2023-05-01T14:05:26;19.20;74.00
65582;DHT22;52231;40.090;18.348;2023-05-01T14:07:56;18.90;74.50
65582;DHT22;52231;40.090;18.348;2023-05-01T14:10:26;18.70;74.20
65582;DHT22;52231;40.090;18.348;2023-05-01T14:12:56;18.60;74.60
65582;DHT22;52231;40.090;18.348;2023-05-01T14:15:26;18.50;75.60
65582;DHT22;52231;40.090;18.348;2023-05-01T14:17:55;18.30;76.00
65582;DHT22;52231;40.090;18.348;2023-05-01T14:20:25;18.20;76.30
65582;DHT22;52231;40.090;18.348;2023-05-01T14:22:54;18.20;76.40
65582;DHT22;52231;40.090;18.348;2023-05-01T14:25:27;18.30;76.50
65582;DHT22;52231;40.090;18.348;2023-05-01T14:27:58;18.40;75.40
65582;DHT22;52231;40.090;18.348;2023-05-01T14:30:31;18.40;75.00
65582;DHT22;52231;40.090;18.348;2023-05-01T14:33:01;18.30;74.90
65582;DHT22;52231;40.090;18.348;2023-05-01T14:35:30;18.30;75.20
65582;DHT22;52231;40.090;18.348;2023-05-01T14:38:09;18.30;74.70
65582;DHT22;52231;40.090;18.348;2023-05-01T14:40:40;18.30;75.20
65582;DHT22;52231;40.090;18.348;2023-05-01T14:43:12;18.40;74.80
65582;DHT22;52231;40.090;18.348;2023-05-01T14:45:42;18.40;74.60
65582;DHT22;52231;40.090;18.348;2023-05-01T14:48:21;18.30;75.10
65582;DHT22;52231;40.090;18.348;2023-05-01T14:50:50;18.30;75.00
65582;DHT22;52231;40.090;18.348;2023-05-01T14:53:19;18.10;75.10
65582;DHT22;52231;40.090;18.348;2023-05-01T14:55:49;18.10;75.70
65582;DHT22;52231;40.090;18.348;2023-05-01T14:58:18;18.00;76.20
65582;DHT22;52231;40.090;18.348;2023-05-01T15:00:46;17.90;76.50
65582;DHT22;52231;40.090;18.348;2023-05-01T15:03:14;17.80;77.00
65582;DHT22;52231;40.090;18.348;2023-05-01T15:05:42;17.80;77.40
65582;DHT22;52231;40.090;18.348;2023-05-01T15:08:12;17.90;77.40
65582;DHT22;52231;40.090;18.348;2023-05-01T15:10:41;17.80;77.70
65582;DHT22;52231;40.090;18.348;2023-05-01T15:13:11;17.80;78.00
65582;DHT22;52231;40.090;18.348;2023-05-01T15:15:39;17.90;78.10
65582;DHT22;52231;40.090;18.348;2023-05-01T15:18:07;17.90;77.80
65582;DHT22;52231;40.090;18.348;2023-05-01T15:20:35;17.80;78.00
65582;DHT22;52231;40.090;18.348;2023-05-01T15:23:05;18.00;77.80
65582;DHT22;52231;40.090;18.348;2023-05-01T15:25:33;18.30;77.00
65582;DHT22;52231;40.090;18.348;2023-05-01T15:28:01;18.10;76.10
65582;DHT22;52231;40.090;18.348;2023-05-01T15:30:30;18.20;76.50
65582;DHT22;52231;40.090;18.348;2023-05-01T15:32:58;18.30;75.80
65582;DHT22;52231;40.090;18.348;2023-05-01T15:35:30;18.20;75.90
65582;DHT22;52231;40.090;18.348;2023-05-01T15:37:58;18.10;75.60
65582;DHT22;52231;40.090;18.348;2023-05-01T15:40:26;18.00;75.50
65582;DHT22;52231;40.090;18.348;2023-05-01T15:42:54;18.00;75.40
65582;DHT22;52231;40.090;18.348;2023-05-01T15:45:22;17.90;76.00
65582;DHT22;52231;40.090;18.348;2023-05-01T15:47:51;17.90;76.20
65582;DHT22;52231;40.090;18.348;2023-05-01T15:50:19;17.90;76.70
65582;DHT22;52231;40.090;18.348;2023-05-01T15:52:49;17.80;77.20
65582;DHT22;52231;40.090;18.348;2023-05-01T15:55:17;17.80;77.00
65582;DHT22;52231;40.090;18.348;2023-05-01T15:57:46;17.60;76.90
65582;DHT22;52231;40.090;18.348;2023-05-01T16:00:15;17.40;78.10
65582;DHT22;52231;40.090;18.348;2023-05-01T16:02:43;17.30;78.50